Time;durP1;ratioP1;P1;durP2;ratioP2;P2;SDS_P1;SDS_P2;PMS_P1;PMS_P2;Temp;Humidity;BMP_temperature;BMP_pressure;BME280_temperature;BME280_humidity;BME280_pressure;Samples;Min_cycle;Max_cycle;Signal;HPM_P1;HPM_P2
2023/12/17 00:00:26;;;;;;;9.57;7.07;;;;;;;-0.19;58.50;95765.03;4984808;28;20029;-76
2023/12/17 00:02:51;;;;;;;12.07;8.18;;;;;;;-0.13;58.56;95774.72;4999565;28;20124;-78
2023/12/17 00:05:17;;;;;;;13.85;8.55;;;;;;;-0.04;58.41;95772.72;5003965;28;20553;-78
2023/12/17 00:07:42;;;;;;;11.60;7.53;;;;;;;0.08;57.96;95773.75;5007487;28;20493;-78
2023/12/17 00:10:08;;;;;;;13.50;8.00;;;;;;;-0.00;58.03;95767.91;5005775;28;20063;-78
2023/12/17 00:12:34;;;;;;;12.85;7.25;;;;;;;-0.14;58.20;95773.09;5007119;28;20048;-77
2023/12/17 00:14:59;;;;;;;11.48;7.25;;;;;;;-0.13;58.47;95772.09;4990365;28;20037;-77
2023/12/17 00:17:25;;;;;;;10.45;7.68;;;;;;;-0.04;58.36;95783.16;4992693;28;20485;-78
2023/12/17 00:19:50;;;;;;;10.73;7.47;;;;;;;-0.01;58.04;95787.22;5002852;28;20517;-76
2023/12/17 00:22:16;;;;;;;9.05;7.30;;;;;;;0.04;57.68;95782.19;4983486;28;20030;-78
2023/12/17 00:24:41;;;;;;;12.10;8.52;;;;;;;0.06;57.46;95796.69;5007708;28;20028;-78
2023/12/17 00:27:07;;;;;;;12.85;8.55;;;;;;;0.08;57.77;95806.94;5008327;28;20049;-75
2023/12/17 00:29:32;;;;;;;13.23;8.27;;;;;;;0.02;57.76;95802.50;5010232;28;20033;-78
2023/12/17 00:31:58;;;;;;;12.13;8.23;;;;;;;-0.01;57.42;95787.22;5009130;28;20038;-79
2023/12/17 00:34:23;;;;;;;11.85;7.68;;;;;;;-0.03;57.65;95812.75;5009514;28;20037;-75
2023/12/17 00:36:49;;;;;;;11.48;7.63;;;;;;;-0.04;57.87;95819.03;5006644;28;20067;-78
2023/12/17 00:39:14;;;;;;;12.85;8.20;;;;;;;-0.12;57.88;95807.72;4993788;28;20060;-78
2023/12/17 00:41:40;;;;;;;10.88;7.38;;;;;;;-0.16;57.64;95793.44;5008293;28;20045;-77
2023/12/17 00:44:05;;;;;;;10.27;7.63;;;;;;;-0.21;57.93;95795.84;5009514;28;20559;-76
2023/12/17 00:46:31;;;;;;;11.60;7.70;;;;;;;-0.25;58.03;95823.38;5009840;28;20029;-79
2023/12/17 00:48:57;;;;;;;9.85;6.57;;;;;;;-0.51;58.34;95804.97;5009140;28;20032;-76
2023/12/17 00:51:23;;;;;;;11.70;7.72;;;;;;;-0.58;59.08;95804.94;4998366;28;20018;-77
2023/12/17 00:53:48;;;;;;;11.80;8.45;;;;;;;-0.62;58.99;95810.75;5010357;28;20057;-80
2023/12/17 00:56:14;;;;;;;11.40;7.15;;;;;;;-0.60;59.43;95819.22;4989471;28;20080;-78
2023/12/17 00:58:39;;;;;;;11.75;7.53;;;;;;;-0.54;58.99;95813.22;5008572;28;20507;-78
2023/12/17 01:01:07;;;;;;;12.15;7.63;;;;;;;-0.67;59.08;95808.72;4994112;28;20025;-76
2023/12/17 01:03:33;;;;;;;8.93;6.55;;;;;;;-0.54;58.75;95808.00;4994417;28;20017;-77
2023/12/17 01:05:59;;;;;;;8.13;5.97;;;;;;;-0.57;58.79;95821.44;5007694;28;20393;-76
2023/12/17 01:08:24;;;;;;;8.18;6.30;;;;;;;-0.73;58.45;95803.50;5008901;28;20515;-77
2023/12/17 01:10:50;;;;;;;6.95;5.57;;;;;;;-0.72;58.67;95807.69;4990436;28;20134;-78
2023/12/17 01:13:17;;;;;;;8.85;6.10;;;;;;;-0.59;58.57;95813.00;5010505;28;20056;-76
2023/12/17 01:15:43;;;;;;;10.10;7.13;;;;;;;-0.76;58.93;95816.94;5010062;28;20049;-79
2023/12/17 01:18:08;;;;;;;7.68;5.40;;;;;;;-0.86;59.16;95801.59;5008359;28;20312;-78
2023/12/17 01:20:34;;;;;;;8.00;5.47;;;;;;;-0.95;58.77;95774.84;5009646;28;20033;-77
2023/12/17 01:22:59;;;;;;;7.18;5.60;;;;;;;-1.05;58.78;95756.09;5007872;28;20038;-78
2023/12/17 01:25:25;;;;;;;7.05;5.88;;;;;;;-0.79;58.64;95820.75;5006586;28;20044;-77
2023/12/17 01:27:50;;;;;;;6.40;5.03;;;;;;;-0.99;58.95;95802.34;5010041;28;20064;-77
2023/12/17 01:30:16;;;;;;;7.18;5.63;;;;;;;-0.89;59.09;95829.94;5007880;28;20042;-77
2023/12/17 01:32:41;;;;;;;9.40;5.65;;;;;;;-0.91;58.93;95811.84;5009034;28;20029;-79
2023/12/17 01:35:08;;;;;;;8.20;5.25;;;;;;;-1.03;58.64;95795.09;5006404;28;20029;-79
2023/12/17 01:37:34;;;;;;;9.85;5.30;;;;;;;-0.80;58.78;95829.59;5010940;28;20034;-78
2023/12/17 01:39:59;;;;;;;6.97;4.70;;;;;;;-0.96;58.94;95835.91;5007483;28;20026;-79
2023/12/17 01:42:25;;;;;;;5.72;4.53;;;;;;;-1.08;59.00;95811.34;5011379;28;20033;-78
2023/12/17 01:44:50;;;;;;;7.38;5.20;;;;;;;-1.02;58.91;95815.00;5008116;28;20923;-79
2023/12/17 01:47:16;;;;;;;6.95;4.28;;;;;;;-0.93;58.94;95839.16;5006264;28;20041;-78
2023/12/17 01:49:41;;;;;;;5.13;3.70;;;;;;;-1.16;59.61;95835.00;4991312;28;20041;-79
2023/12/17 01:52:08;;;;;;;4.90;4.28;;;;;;;-1.13;59.62;95839.03;5009016;28;20033;-78
2023/12/17 01:54:34;;;;;;;7.50;4.38;;;;;;;-1.22;59.33;95808.84;5008156;28;20124;-76
2023/12/17 01:57:01;;;;;;;7.53;4.97;;;;;;;-1.18;59.89;95842.22;5005439;28;20045;-78
2023/12/17 01:59:27;;;;;;;7.00;4.75;;;;;;;-1.09;59.88;95835.84;4997889;28;20436;-78
2023/12/17 02:01:53;;;;;;;6.22;4.55;;;;;;;-1.14;59.88;95833.00;5004893;28;20580;-77
2023/12/17 02:04:21;;;;;;;6.15;4.35;;;;;;;-1.02;59.63;95831.47;5008612;28;20121;-77
2023/12/17 02:06:47;;;;;;;6.93;4.22;;;;;;;-1.23;59.93;95818.50;5007244;28;20052;-78
2023/12/17 02:09:13;;;;;;;9.23;5.15;;;;;;;-1.03;59.76;95829.88;5004801;28;20046;-77
2023/12/17 02:11:38;;;;;;;6.28;5.05;;;;;;;-1.16;59.55;95814.09;5008076;28;20045;-76
2023/12/17 02:14:03;;;;;;;6.30;5.03;;;;;;;-1.08;59.39;95813.97;5004204;28;20048;-78
2023/12/17 02:16:29;;;;;;;9.50;4.40;;;;;;;-1.25;59.61;95793.53;5006736;28;20055;-76
2023/12/17 02:18:57;;;;;;;6.78;4.70;;;;;;;-1.32;59.75;95805.75;4997166;28;20021;-78
2023/12/17 02:21:23;;;;;;;7.45;4.50;;;;;;;-1.14;59.72;95813.91;5005732;28;20488;-77
2023/12/17 02:23:48;;;;;;;6.97;5.28;;;;;;;-1.18;59.93;95820.53;5006505;28;20041;-78
2023/12/17 02:26:14;;;;;;;6.65;4.60;;;;;;;-1.06;59.44;95819.78;5008219;28;20136;-79
2023/12/17 02:28:40;;;;;;;5.90;4.75;;;;;;;-1.07;59.40;95827.84;5007558;28;20144;-76
2023/12/17 02:31:08;;;;;;;6.80;4.90;;;;;;;-0.95;59.13;95826.28;5005546;28;20485;-77
2023/12/17 02:33:33;;;;;;;7.15;4.82;;;;;;;-1.09;59.13;95796.69;5008216;28;20025;-76
2023/12/17 02:35:59;;;;;;;7.68;5.50;;;;;;;-1.13;59.18;95795.44;5009016;28;20041;-77
2023/12/17 02:38:24;;;;;;;5.82;4.20;;;;;;;-1.04;58.97;95815.19;4996731;28;20042;-77
2023/12/17 02:40:49;;;;;;;7.90;5.00;;;;;;;-1.29;59.15;95793.13;5007263;28;20045;-76
2023/12/17 02:43:15;;;;;;;6.90;4.55;;;;;;;-1.21;59.28;95802.59;5010081;28;20030;-77
2023/12/17 02:45:40;;;;;;;7.30;5.45;;;;;;;-1.19;59.47;95826.72;5008971;28;20083;-77
2023/12/17 02:48:06;;;;;;;8.07;5.70;;;;;;;-1.01;59.56;95830.47;5008698;28;20539;-76
2023/12/17 02:50:31;;;;;;;7.35;4.60;;;;;;;-1.21;59.33;95810.44;5006789;28;20100;-78
2023/12/17 02:52:57;;;;;;;8.77;5.38;;;;;;;-0.99;59.09;95825.06;5008591;28;20034;-78
2023/12/17 02:55:22;;;;;;;8.48;5.28;;;;;;;-1.09;59.04;95817.56;4986784;28;20029;-77
2023/12/17 02:57:47;;;;;;;9.45;5.15;;;;;;;-0.97;58.79;95813.41;4997479;28;20052;-78
2023/12/17 03:00:14;;;;;;;6.70;4.38;;;;;;;-1.08;58.79;95800.91;5004922;28;20061;-77
2023/12/17 03:02:39;;;;;;;7.35;4.82;;;;;;;-0.92;58.71;95825.88;4997658;28;20033;-77
2023/12/17 03:05:05;;;;;;;7.88;5.60;;;;;;;-0.98;58.57;95832.72;5008145;28;20038;-77
2023/12/17 03:07:31;;;;;;;5.90;4.05;;;;;;;-1.01;58.69;95812.19;5006545;28;20544;-77
2023/12/17 03:09:56;;;;;;;8.50;4.90;;;;;;;-1.00;58.38;95800.75;5006396;28;20138;-78
2023/12/17 03:12:21;;;;;;;6.70;4.68;;;;;;;-0.76;58.55;95819.53;4996833;28;20064;-77
2023/12/17 03:14:47;;;;;;;7.45;4.75;;;;;;;-0.72;58.13;95829.41;5006709;28;20042;-77
2023/12/17 03:17:12;;;;;;;5.05;4.20;;;;;;;-0.85;58.01;95807.66;5005909;28;20052;-77
2023/12/17 03:19:38;;;;;;;5.82;4.18;;;;;;;-0.71;57.81;95817.16;5004458;28;20072;-75
2023/12/17 03:22:04;;;;;;;7.80;6.18;;;;;;;-0.54;56.86;95824.50;4991582;28;20029;-76
2023/12/17 03:24:30;;;;;;;6.88;4.78;;;;;;;-0.71;57.66;95822.38;4991373;28;20051;-75
2023/12/17 03:26:55;;;;;;;8.15;5.25;;;;;;;-0.61;57.71;95833.28;5006884;28;20562;-77
2023/12/17 03:29:21;;;;;;;6.00;4.22;;;;;;;-0.67;57.93;95819.19;4989044;28;20041;-78
2023/12/17 03:31:46;;;;;;;6.65;4.68;;;;;;;-0.64;57.76;95828.47;5005989;28;20115;-77
2023/12/17 03:34:12;;;;;;;6.47;4.38;;;;;;;-0.81;57.33;95811.47;5004511;28;20239;-78
2023/12/17 03:36:38;;;;;;;5.15;4.30;;;;;;;-0.68;57.16;95828.03;5007696;28;20034;-76
2023/12/17 03:39:04;;;;;;;7.65;5.20;;;;;;;-0.72;56.64;95836.44;5006563;28;20514;-78
2023/12/17 03:41:29;;;;;;;7.03;4.90;;;;;;;-0.79;57.30;95825.16;4990355;28;20384;-77
2023/12/17 03:43:56;;;;;;;8.20;5.28;;;;;;;-0.76;57.48;95836.03;4990077;28;20068;-78
2023/12/17 03:46:24;;;;;;;6.32;5.15;;;;;;;-0.67;57.49;95841.91;4987801;28;20068;-77
2023/12/17 03:48:49;;;;;;;7.90;6.00;;;;;;;-0.56;57.01;95836.13;4991676;28;20048;-78
2023/12/17 03:51:15;;;;;;;8.70;6.03;;;;;;;-0.73;56.84;95822.59;5004822;28;20536;-78
2023/12/17 03:53:42;;;;;;;6.32;4.75;;;;;;;-0.64;56.94;95844.16;5007252;28;20068;-78
2023/12/17 03:56:09;;;;;;;9.75;6.22;;;;;;;-0.55;56.78;95849.00;5004603;28;20045;-77
2023/12/17 03:58:35;;;;;;;7.80;4.95;;;;;;;-0.69;56.98;95846.53;4986440;28;20037;-79
2023/12/17 04:01:05;;;;;;;7.38;6.15;;;;;;;-0.77;57.10;95828.38;5006311;28;20041;-76
2023/12/17 04:03:30;;;;;;;7.53;5.25;;;;;;;-0.66;57.02;95852.16;5010535;28;20606;-77
2023/12/17 04:05:58;;;;;;;6.45;5.40;;;;;;;-0.64;56.85;95850.19;5009271;28;20049;-76
2023/12/17 04:08:24;;;;;;;7.05;4.82;;;;;;;-0.66;56.58;95840.91;5007613;28;20042;-77
2023/12/17 04:10:49;;;;;;;6.18;4.95;;;;;;;-0.76;55.99;95833.41;5009096;28;20046;-77
2023/12/17 04:13:15;;;;;;;9.05;6.65;;;;;;;-0.59;56.08;95857.44;5008318;28;20186;-78
2023/12/17 04:15:40;;;;;;;10.10;6.95;;;;;;;-0.58;56.55;95859.06;5008615;28;20081;-77
2023/12/17 04:18:05;;;;;;;8.98;6.03;;;;;;;-0.77;56.46;95833.59;5010060;28;20121;-76
2023/12/17 04:20:31;;;;;;;11.90;6.22;;;;;;;-0.74;56.60;95851.53;5008111;28;20038;-77
2023/12/17 04:22:56;;;;;;;12.70;8.52;;;;;;;-0.82;57.03;95843.81;5009241;28;20088;-77
2023/12/17 04:25:22;;;;;;;8.82;5.78;;;;;;;-0.78;56.29;95860.75;5007467;28;20076;-77
2023/12/17 04:27:48;;;;;;;16.70;9.95;;;;;;;-0.85;56.32;95852.06;4994937;28;20033;-77
2023/12/17 04:30:13;;;;;;;16.42;6.47;;;;;;;-0.91;56.91;95868.50;5008521;28;20038;-75
2023/12/17 04:32:39;;;;;;;16.20;8.38;;;;;;;-0.90;56.95;95872.72;5010562;28;20034;-79
2023/12/17 04:35:06;;;;;;;14.05;8.32;;;;;;;-0.97;57.41;95870.88;4998028;28;20045;-78
2023/12/17 04:37:33;;;;;;;12.57;6.45;;;;;;;-0.95;57.63;95868.06;5009990;28;20065;-75
2023/12/17 04:39:58;;;;;;;8.45;6.00;;;;;;;-0.92;57.69;95866.91;5008832;28;20018;-75
2023/12/17 04:42:24;;;;;;;7.68;5.20;;;;;;;-0.99;57.73;95845.97;5010644;28;20032;-77
2023/12/17 04:44:49;;;;;;;9.95;6.15;;;;;;;-0.91;57.65;95847.59;4993795;28;20491;-79
2023/12/17 04:47:14;;;;;;;10.25;6.72;;;;;;;-0.99;57.43;95841.53;5011168;28;20141;-80
2023/12/17 04:49:40;;;;;;;9.48;5.47;;;;;;;-0.97;57.08;95852.59;5006152;28;20042;-78
2023/12/17 04:52:06;;;;;;;7.15;5.35;;;;;;;-0.87;56.88;95851.47;5009876;28;20708;-78
2023/12/17 04:54:32;;;;;;;8.85;6.03;;;;;;;-1.02;57.44;95860.19;5010724;28;20013;-77
2023/12/17 04:57:01;;;;;;;8.38;5.30;;;;;;;-0.78;57.33;95885.09;5007534;28;20053;-77
2023/12/17 04:59:27;;;;;;;13.55;7.13;;;;;;;-1.20;57.32;95827.72;5009040;28;20033;-75
2023/12/17 05:01:52;;;;;;;15.15;9.25;;;;;;;-0.95;57.95;95879.34;5006896;28;20037;-76
2023/12/17 05:04:19;;;;;;;10.13;7.10;;;;;;;-1.21;59.10;95860.88;5008249;28;20533;-78
2023/12/17 05:06:45;;;;;;;9.38;7.00;;;;;;;-1.10;58.98;95868.19;5009500;28;20028;-77
2023/12/17 05:09:10;;;;;;;11.20;8.52;;;;;;;-1.14;59.11;95876.59;5006929;28;20067;-77
2023/12/17 05:11:36;;;;;;;14.40;9.07;;;;;;;-1.19;59.58;95876.34;5008692;28;20765;-78
2023/12/17 05:14:01;;;;;;;9.27;6.65;;;;;;;-1.19;59.62;95887.59;5006535;28;20038;-78
2023/12/17 05:16:27;;;;;;;11.80;9.23;;;;;;;-1.08;60.08;95900.16;5009219;28;20183;-76
2023/12/17 05:18:52;;;;;;;12.15;7.72;;;;;;;-1.11;60.17;95886.66;4998433;28;20096;-79
2023/12/17 05:21:18;;;;;;;14.52;9.25;;;;;;;-1.28;60.74;95899.19;5008441;28;20034;-78
2023/12/17 05:23:48;;;;;;;9.15;6.95;;;;;;;-1.48;61.29;95898.19;5008638;28;20033;-75
2023/12/17 05:26:13;;;;;;;13.27;8.30;;;;;;;-1.27;61.31;95911.25;5005528;28;20069;-78
2023/12/17 05:28:41;;;;;;;13.05;8.65;;;;;;;-1.29;60.68;95901.97;5006721;28;20113;-76
2023/12/17 05:31:07;;;;;;;9.40;6.72;;;;;;;-1.28;60.64;95891.34;4992352;28;20029;-77
2023/12/17 05:33:32;;;;;;;12.98;8.40;;;;;;;-1.30;60.56;95888.09;4989139;28;20033;-79
2023/12/17 05:35:58;;;;;;;12.38;7.95;;;;;;;-1.10;59.75;95923.03;4991787;28;20052;-77
2023/12/17 05:38:27;;;;;;;9.32;6.28;;;;;;;-1.16;60.53;95929.00;5006716;28;20041;-78
2023/12/17 05:40:53;;;;;;;7.15;5.30;;;;;;;-1.25;61.11;95909.25;5009255;28;20025;-79
2023/12/17 05:43:19;;;;;;;11.65;6.78;;;;;;;-1.33;61.04;95914.59;5005896;28;20033;-77
2023/12/17 05:45:44;;;;;;;14.77;7.53;;;;;;;-1.30;61.17;95932.50;5008789;28;20224;-79
2023/12/17 05:48:10;;;;;;;8.90;6.07;;;;;;;-1.40;61.07;95909.31;5006396;28;20057;-78
2023/12/17 05:50:35;;;;;;;12.52;7.75;;;;;;;-1.43;60.67;95896.66;5006779;28;20129;-78
2023/12/17 05:53:01;;;;;;;12.05;7.82;;;;;;;-1.13;60.37;95918.19;4993885;28;20378;-75
2023/12/17 05:55:26;;;;;;;9.18;6.38;;;;;;;-1.41;60.72;95899.88;5002755;28;20030;-77
2023/12/17 05:57:52;;;;;;;9.43;5.93;;;;;;;-1.21;60.82;95915.69;5007987;28;20559;-77
2023/12/17 06:00:18;;;;;;;10.98;7.03;;;;;;;-1.50;61.02;95900.19;5007178;28;20057;-77
2023/12/17 06:02:43;;;;;;;9.65;6.70;;;;;;;-1.39;61.45;95923.19;5009448;28;20061;-79
2023/12/17 06:05:09;;;;;;;11.48;6.70;;;;;;;-1.30;61.49;95919.44;5008707;28;20059;-79
2023/12/17 06:07:34;;;;;;;10.05;6.53;;;;;;;-1.31;61.99;95923.03;5008425;28;20044;-77
2023/12/17 06:10:00;;;;;;;10.18;7.95;;;;;;;-1.27;61.83;95920.88;5005415;28;20129;-77
2023/12/17 06:12:25;;;;;;;11.32;7.55;;;;;;;-1.64;62.53;95901.06;5006517;28;20393;-77
2023/12/17 06:14:51;;;;;;;10.57;6.75;;;;;;;-1.45;62.67;95929.94;5006971;28;20083;-77
2023/12/17 06:17:16;;;;;;;10.00;7.00;;;;;;;-1.48;63.07;95932.13;5006312;28;20037;-77
2023/12/17 06:19:43;;;;;;;10.57;7.05;;;;;;;-2.02;64.07;95914.31;5006901;28;20052;-76
2023/12/17 06:22:11;;;;;;;9.98;7.05;;;;;;;-1.70;64.29;95923.47;5007473;28;20038;-80
2023/12/17 06:24:37;;;;;;;9.65;7.03;;;;;;;-1.73;64.30;95902.97;4992954;28;20556;-80
2023/12/17 06:27:03;;;;;;;13.02;8.00;;;;;;;-1.59;63.89;95927.41;5007528;28;20041;-78
2023/12/17 06:29:28;;;;;;;13.85;8.50;;;;;;;-1.75;63.81;95906.78;5007220;28;20087;-78
2023/12/17 06:31:54;;;;;;;14.82;8.60;;;;;;;-1.57;64.40;95922.81;5006774;28;20042;-79
2023/12/17 06:34:20;;;;;;;11.05;7.55;;;;;;;-1.82;65.25;95933.59;5005766;28;20037;-77
2023/12/17 06:36:45;;;;;;;9.00;6.85;;;;;;;-1.94;65.49;95923.81;5003671;28;20024;-77
2023/12/17 06:39:11;;;;;;;11.55;6.85;;;;;;;-1.76;65.59;95936.47;4999775;28;20037;-78
2023/12/17 06:41:43;;;;;;;9.13;6.15;;;;;;;-1.68;65.15;95936.34;5004571;28;20042;-78
2023/12/17 06:44:09;;;;;;;8.38;5.82;;;;;;;-1.47;65.03;95938.97;5003675;28;20045;-77
2023/12/17 06:46:34;;;;;;;8.27;5.95;;;;;;;-1.66;65.52;95932.56;4988733;28;20037;-78
2023/12/17 06:49:02;;;;;;;8.82;5.47;;;;;;;-1.56;65.12;95927.06;5005991;28;20485;-76
2023/12/17 06:51:27;;;;;;;11.18;7.22;;;;;;;-1.73;65.48;95931.69;4988900;28;20061;-78
2023/12/17 06:53:57;;;;;;;10.07;6.30;;;;;;;-1.59;65.32;95937.84;5005942;28;20137;-78
2023/12/17 06:56:23;;;;;;;14.15;8.27;;;;;;;-1.46;64.70;95957.03;5000586;28;20614;-78
2023/12/17 06:58:48;;;;;;;14.95;9.05;;;;;;;-1.57;65.49;95961.97;5002617;28;20128;-76
2023/12/17 07:01:14;;;;;;;14.05;8.82;;;;;;;-1.54;64.67;95935.47;5002581;28;20038;-78
2023/12/17 07:03:39;;;;;;;13.27;8.48;;;;;;;-1.68;65.62;95965.03;4989787;28;20139;-78
2023/12/17 07:06:09;;;;;;;11.40;7.40;;;;;;;-1.90;65.81;95933.69;5006178;28;20749;-77
2023/12/17 07:08:35;;;;;;;8.52;6.05;;;;;;;-1.92;66.36;95961.78;5001059;28;20041;-79
2023/12/17 07:11:11;;;;;;;9.73;6.65;;;;;;;-1.64;66.52;95968.91;4988755;28;20773;-77
2023/12/17 07:13:37;;;;;;;16.23;9.63;;;;;;;-1.72;66.33;95963.81;4988011;28;20076;-77
2023/12/17 07:16:03;;;;;;;13.95;8.43;;;;;;;-1.52;65.73;95954.38;5005037;28;20132;-77
2023/12/17 07:18:28;;;;;;;15.02;9.48;;;;;;;-1.24;64.86;95981.38;5003531;28;20118;-78
2023/12/17 07:20:54;;;;;;;10.75;7.25;;;;;;;-1.40;65.12;95963.31;5007014;28;20064;-79
2023/12/17 07:23:24;;;;;;;8.60;6.53;;;;;;;-1.26;64.81;95967.66;5006483;28;20037;-76
2023/12/17 07:25:49;;;;;;;10.98;7.03;;;;;;;-1.46;65.04;95945.81;5005344;28;20041;-75
2023/12/17 07:28:15;;;;;;;12.23;7.93;;;;;;;-1.23;65.40;95967.31;5007064;28;20029;-77
2023/12/17 07:30:40;;;;;;;9.80;7.60;;;;;;;-1.23;65.36;95962.09;5008197;28;20022;-78
2023/12/17 07:33:06;;;;;;;9.57;6.93;;;;;;;-1.38;65.71;95956.13;4989436;28;20586;-78
2023/12/17 07:35:31;;;;;;;8.40;6.47;;;;;;;-1.39;65.12;95931.00;5003448;28;20519;-79
2023/12/17 07:37:57;;;;;;;10.63;6.55;;;;;;;-1.55;65.59;95929.44;5007088;28;20148;-77
2023/12/17 07:40:22;;;;;;;7.90;5.35;;;;;;;-1.48;65.88;95926.91;4998284;28;20057;-77
2023/12/17 07:42:48;;;;;;;9.27;6.22;;;;;;;-1.25;65.56;95947.59;5008371;28;20429;-78
2023/12/17 07:45:13;;;;;;;10.48;5.93;;;;;;;-1.25;65.43;95958.03;5011027;28;20088;-79
2023/12/17 07:47:39;;;;;;;12.43;8.23;;;;;;;-1.24;65.36;95963.09;5007986;28;20040;-78
2023/12/17 07:50:06;;;;;;;8.88;6.90;;;;;;;-1.33;65.65;95960.78;5009514;28;20521;-77
2023/12/17 07:52:32;;;;;;;8.85;7.18;;;;;;;-1.04;65.44;95974.53;4995877;28;20030;-77
2023/12/17 07:54:57;;;;;;;11.35;7.10;;;;;;;-0.84;64.63;95982.50;5005448;28;20033;-77
2023/12/17 07:57:22;;;;;;;13.82;8.63;;;;;;;-0.87;64.19;95979.47;4989211;28;20433;-77
2023/12/17 07:59:48;;;;;;;9.38;7.25;;;;;;;-0.83;63.86;95985.94;5009806;28;20477;-78
2023/12/17 08:02:17;;;;;;;9.98;7.40;;;;;;;-1.14;64.74;95979.25;4979017;28;20029;-77
2023/12/17 08:04:49;;;;;;;9.30;7.28;;;;;;;-0.86;64.89;95992.34;4987573;28;20402;-78
2023/12/17 08:07:15;;;;;;;9.32;6.68;;;;;;;-0.74;64.35;95974.34;4993049;28;20033;-78
2023/12/17 08:09:40;;;;;;;10.68;7.32;;;;;;;-1.06;64.05;95980.91;5004765;28;20026;-78
2023/12/17 08:12:08;;;;;;;9.02;6.15;;;;;;;-0.92;63.59;95971.41;5003766;28;20627;-78
2023/12/17 08:14:33;;;;;;;8.43;6.32;;;;;;;-0.71;63.09;95995.69;4997563;28;20037;-76
2023/12/17 08:16:59;;;;;;;9.75;6.47;;;;;;;-0.82;63.54;96004.03;5002207;28;20054;-77
2023/12/17 08:19:25;;;;;;;11.25;8.63;;;;;;;-0.97;64.20;95995.44;5005580;28;20038;-79
2023/12/17 08:21:51;;;;;;;14.57;10.05;;;;;;;-1.11;64.23;95991.09;4999581;28;20036;-79
2023/12/17 08:24:16;;;;;;;16.40;10.55;;;;;;;-1.10;64.77;96009.22;4985026;28;20038;-77
2023/12/17 08:26:41;;;;;;;27.75;11.65;;;;;;;-1.22;66.00;96015.94;4991345;28;20033;-79
2023/12/17 08:29:07;;;;;;;13.88;11.07;;;;;;;-1.24;65.85;96004.06;5004692;28;20037;-78
2023/12/17 08:31:33;;;;;;;17.52;12.10;;;;;;;-1.13;65.33;96004.38;5003125;28;20050;-76
2023/12/17 08:33:58;;;;;;;23.92;13.20;;;;;;;-0.96;65.42;96004.91;5004097;28;20036;-79
2023/12/17 08:36:25;;;;;;;20.70;11.50;;;;;;;-0.87;64.16;95992.53;5008347;28;20596;-78
2023/12/17 08:38:51;;;;;;;25.73;15.50;;;;;;;-0.78;64.68;96012.31;4996095;28;20048;-77
2023/12/17 08:41:17;;;;;;;22.33;12.60;;;;;;;-0.67;64.33;96011.78;5002136;28;20037;-79
2023/12/17 08:43:42;;;;;;;23.65;14.65;;;;;;;-0.80;64.48;95991.59;4988880;28;20030;-77
2023/12/17 08:46:08;;;;;;;19.67;13.30;;;;;;;-0.87;65.16;95984.72;4989817;28;20032;-76
2023/12/17 08:48:34;;;;;;;15.88;10.23;;;;;;;-0.70;64.17;95967.75;5008204;28;20033;-76
2023/12/17 08:50:59;;;;;;;19.77;13.25;;;;;;;-0.70;64.27;95978.19;5006363;28;20087;-79
2023/12/17 08:53:26;;;;;;;19.80;11.82;;;;;;;-0.64;65.17;95966.97;5008178;28;20124;-78
2023/12/17 08:55:52;;;;;;;14.68;10.15;;;;;;;-0.70;64.47;95967.75;4996607;28;20116;-76
2023/12/17 08:58:20;;;;;;;10.80;7.28;;;;;;;-0.59;64.02;95967.22;5005834;28;20037;-76
2023/12/17 09:00:47;;;;;;;11.50;7.22;;;;;;;-0.57;63.61;95966.00;5006783;28;20073;-76
2023/12/17 09:03:12;;;;;;;12.32;8.35;;;;;;;-0.61;63.84;95962.16;5004106;28;20037;-78
2023/12/17 09:05:38;;;;;;;25.10;14.60;;;;;;;-0.64;64.18;95975.63;4993058;28;20950;-79
2023/12/17 09:08:03;;;;;;;16.23;9.75;;;;;;;-0.55;64.08;95973.69;4992953;28;20041;-78
2023/12/17 09:10:29;;;;;;;15.02;10.25;;;;;;;-0.52;64.10;95958.41;4990155;28;20110;-79
2023/12/17 09:12:54;;;;;;;13.98;9.60;;;;;;;-0.23;63.63;95978.28;5007286;28;20550;-79
2023/12/17 09:15:22;;;;;;;15.98;11.13;;;;;;;-0.41;64.29;95980.59;5005793;28;20080;-80
2023/12/17 09:17:48;;;;;;;35.63;17.17;;;;;;;-0.35;63.70;95969.38;4996534;28;20458;-80
2023/12/17 09:20:14;;;;;;;29.15;15.30;;;;;;;-0.25;63.95;95969.84;4992694;28;20045;-80
2023/12/17 09:22:40;;;;;;;13.35;10.00;;;;;;;-0.17;63.39;95961.00;5007261;28;20689;-79
2023/12/17 09:25:06;;;;;;;12.35;9.55;;;;;;;-0.25;63.07;95961.19;5009125;28;20053;-78
2023/12/17 09:27:32;;;;;;;12.13;8.73;;;;;;;-0.44;62.73;95965.31;5003021;28;20030;-78
2023/12/17 09:29:57;;;;;;;15.60;9.88;;;;;;;-0.32;62.61;95948.06;5006204;28;20037;-81
2023/12/17 09:32:22;;;;;;;15.35;9.68;;;;;;;-0.50;62.54;95913.78;5007111;28;20096;-79
2023/12/17 09:34:48;;;;;;;13.23;8.57;;;;;;;-0.24;62.61;95978.50;4993026;28;20050;-77
2023/12/17 09:37:13;;;;;;;15.27;10.77;;;;;;;-0.51;62.78;95961.84;5003951;28;20065;-79
2023/12/17 09:39:39;;;;;;;12.10;8.55;;;;;;;-0.56;63.11;95961.59;5007979;28;20022;-78
2023/12/17 09:42:04;;;;;;;14.13;8.77;;;;;;;-0.60;63.60;95949.91;5004600;28;20144;-77
2023/12/17 09:44:30;;;;;;;15.15;9.90;;;;;;;-0.61;64.75;95975.25;4985920;28;20037;-78
2023/12/17 09:46:56;;;;;;;13.38;9.32;;;;;;;-0.52;64.49;95974.09;4987955;28;20655;-75
2023/12/17 09:49:21;;;;;;;15.75;11.02;;;;;;;-0.68;64.62;95927.34;5007287;28;20104;-79
2023/12/17 09:51:57;;;;;;;15.70;10.38;;;;;;;-0.70;65.46;95950.25;5008157;28;22153;-79
2023/12/17 09:54:23;;;;;;;12.90;10.18;;;;;;;-0.46;63.94;95953.41;4987862;28;20169;-79
2023/12/17 09:56:49;;;;;;;13.10;9.95;;;;;;;-0.39;64.31;95955.09;5007719;28;20534;-78
2023/12/17 09:59:15;;;;;;;12.98;8.70;;;;;;;-0.38;62.41;95942.78;4988092;28;20040;-79
2023/12/17 10:01:41;;;;;;;15.63;10.02;;;;;;;-0.63;63.21;95903.25;4992001;28;20037;-78
2023/12/17 10:04:06;;;;;;;12.85;9.32;;;;;;;-0.37;63.67;95950.44;5003849;28;20489;-79
2023/12/17 10:06:32;;;;;;;13.10;9.18;;;;;;;-0.27;63.13;95940.44;5006143;28;20473;-78
2023/12/17 10:08:58;;;;;;;11.52;8.43;;;;;;;-0.37;63.96;95926.09;5004416;28;20094;-76
2023/12/17 10:11:24;;;;;;;13.73;8.85;;;;;;;-0.26;63.82;95933.41;5004869;28;20046;-79
2023/12/17 10:13:52;;;;;;;12.90;9.15;;;;;;;-0.04;63.09;95934.91;5004848;28;20065;-76
2023/12/17 10:16:17;;;;;;;15.55;10.30;;;;;;;-0.28;63.05;95932.78;5006182;28;20041;-79
2023/12/17 10:18:48;;;;;;;12.73;9.45;;;;;;;-0.40;63.20;95935.16;4993012;28;20044;-78
2023/12/17 10:21:13;;;;;;;16.58;10.75;;;;;;;-0.30;63.31;95919.94;5003814;28;20061;-79
2023/12/17 10:23:49;;;;;;;16.38;10.63;;;;;;;-0.17;63.54;95925.22;5006733;28;20042;-79
2023/12/17 10:26:16;;;;;;;17.13;11.82;;;;;;;-0.35;63.47;95911.03;4984931;28;20806;-79
2023/12/17 10:28:46;;;;;;;17.00;11.85;;;;;;;-0.30;64.47;95899.00;5003950;28;20041;-79
2023/12/17 10:31:14;;;;;;;13.65;9.40;;;;;;;-0.03;63.20;95907.75;4991153;28;20028;-79
2023/12/17 10:33:54;;;;;;;16.70;10.73;;;;;;;-0.30;63.19;95904.25;5005518;28;20025;-79
2023/12/17 10:36:20;;;;;;;16.10;10.00;;;;;;;-0.11;63.15;95916.59;5004672;28;20038;-78
2023/12/17 10:38:47;;;;;;;16.08;10.75;;;;;;;-0.48;63.74;95892.69;5002471;28;20080;-79
2023/12/17 10:41:15;;;;;;;15.15;10.75;;;;;;;-0.49;64.89;95915.41;4992237;28;20029;-79
2023/12/17 10:43:42;;;;;;;16.27;11.32;;;;;;;-0.55;64.50;95895.25;4989744;28;20714;-79
2023/12/17 10:46:08;;;;;;;15.88;10.07;;;;;;;-0.57;64.58;95918.97;5003963;28;20231;-79
2023/12/17 10:48:34;;;;;;;13.82;10.20;;;;;;;-0.85;65.35;95899.09;5007268;28;20014;-78
2023/12/17 10:51:00;;;;;;;18.10;10.48;;;;;;;-0.69;65.73;95911.88;5001864;28;20543;-77
2023/12/17 10:53:26;;;;;;;18.95;12.20;;;;;;;-0.44;65.87;95923.47;4987717;28;20030;-79
2023/12/17 10:55:51;;;;;;;13.35;9.57;;;;;;;-0.27;63.66;95924.75;5001932;28;20048;-79
2023/12/17 10:58:21;;;;;;;14.48;10.23;;;;;;;-0.41;64.66;95924.88;4988830;28;20162;-78
2023/12/17 11:00:47;;;;;;;18.17;11.48;;;;;;;-0.38;64.20;95895.72;5006931;28;20112;-80
2023/12/17 11:03:14;;;;;;;15.05;10.85;;;;;;;-0.19;63.46;95914.13;5002486;28;20038;-77
2023/12/17 11:05:54;;;;;;;16.92;11.02;;;;;;;-0.37;64.11;95887.69;5002376;28;20075;-79
2023/12/17 11:08:23;;;;;;;14.18;10.05;;;;;;;-0.20;64.48;95896.03;4993280;28;20037;-79
2023/12/17 11:10:49;;;;;;;14.88;10.60;;;;;;;-0.25;63.11;95883.53;5003391;28;20045;-77
2023/12/17 11:13:14;;;;;;;14.57;10.60;;;;;;;-0.30;63.89;95880.69;4988458;28;20646;-78
2023/12/17 11:15:40;;;;;;;16.73;10.60;;;;;;;-0.15;63.10;95868.28;5005840;28;20053;-80
2023/12/17 11:18:05;;;;;;;14.90;10.55;;;;;;;0.01;62.75;95874.19;5005265;28;20588;-79
2023/12/17 11:20:40;;;;;;;17.40;11.60;;;;;;;0.08;63.08;95870.56;5004384;28;20759;-78